.
WxDataArchive / Data Records for 2011-08-23
2011-08-22 August 2011 2011-08-24

Data Records for Tuesday, 23 August 2011

Time	Temp	Chill	HIndex	Humid	Dewpt	 Wind 	HiWind	WindDir	Rain 	Barom 
-----	----	-----	------	-----	-----	------	------	-------	-----	----- 
00:00	63.5	63.5	63.5	79	56.9	0	0	---	0.00	30.017 
00:05	63.4	63.4	63.4	80	57.1	0	0	---	0.00	30.017 
00:10	63.2	63.2	63.2	80	56.9	0	0	---	0.00	30.017 
00:15	63.1	63.1	63.1	80	56.8	0	0	---	0.00	30.014 
00:20	62.9	62.9	62.9	81	57.0	0	0	---	0.00	30.014 
00:25	62.7	62.7	62.7	81	56.8	0	0	---	0.00	30.014 
00:30	62.6	62.6	62.6	81	56.7	0	0	---	0.00	30.017 
00:35	62.4	62.4	62.4	81	56.5	0	0	---	0.00	30.017 
00:40	62.1	62.1	62.1	82	56.5	0	0	---	0.00	30.017 
00:45	62.0	62.0	62.0	83	56.8	0	0	---	0.00	30.018 
00:50	61.8	61.8	61.8	83	56.6	0	0	---	0.00	30.018 
00:55	61.5	61.5	61.5	83	56.3	0	0	---	0.00	30.018 
01:00	61.3	61.3	61.3	84	56.4	0	0	---	0.00	30.020 
01:05	61.2	61.2	61.2	84	56.3	0	0	---	0.00	30.020 
01:10	61.0	61.0	61.0	84	56.1	0	0	---	0.00	30.020 
01:15	60.9	60.9	60.9	85	56.4	0	0	---	0.00	30.022 
01:20	60.7	60.7	60.7	85	56.2	0	0	---	0.00	30.022 
01:25	60.5	60.5	60.5	85	56.0	0	0	---	0.00	30.022 
01:30	60.5	60.5	60.5	85	56.0	0	0	---	0.00	30.022 
01:35	60.4	60.4	60.4	86	56.2	0	0	---	0.00	30.022 
01:40	60.2	60.2	60.2	86	56.0	0	0	---	0.00	30.022 
01:45	60.1	60.1	60.1	87	56.2	0	0	---	0.00	30.021 
01:50	60.1	60.1	60.1	87	56.2	0	0	---	0.00	30.021 
01:55	59.9	59.9	59.9	87	56.0	0	0	---	0.00	30.021 
02:00	59.8	59.8	59.8	88	56.2	0	0	---	0.00	30.020 
02:05	59.8	59.8	59.8	88	56.2	0	0	---	0.00	30.020 
02:10	59.6	59.6	59.6	88	56.0	0	0	---	0.00	30.020 
02:15	59.6	59.6	59.6	88	56.0	0	0	---	0.00	30.023 
02:20	59.5	59.5	59.5	88	55.9	0	0	---	0.00	30.023 
02:25	59.5	59.5	59.5	88	55.9	0	0	---	0.00	30.023 
02:30	59.5	59.5	59.5	89	56.3	0	0	---	0.00	30.021 
02:35	59.5	59.5	59.5	89	56.3	0	0	---	0.00	30.021 
02:40	59.3	59.3	59.3	89	56.1	0	0	---	0.00	30.021 
02:45	59.3	59.3	59.3	89	56.1	0	0	---	0.00	30.020 
02:50	59.3	59.3	59.3	89	56.1	0	0	---	0.00	30.020 
02:55	59.2	59.2	59.2	89	56.0	0	0	---	0.00	30.020 
03:00	59.2	59.2	59.2	89	56.0	0	0	---	0.00	30.018 
03:05	59.2	59.2	59.2	90	56.3	0	0	---	0.00	30.018 
03:10	59.0	59.0	59.0	90	56.1	0	0	---	0.00	30.018 
03:15	59.0	59.0	59.0	90	56.1	0	0	---	0.00	30.016 
03:20	59.0	59.0	59.0	90	56.1	0	0	---	0.00	30.016 
03:25	58.9	58.9	58.9	90	56.0	0	0	---	0.00	30.016 
03:30	58.9	58.9	58.9	90	56.0	0	0	---	0.00	30.015 
03:35	58.7	58.7	58.7	90	55.8	0	0	---	0.00	30.015 
03:40	58.6	58.6	58.6	90	55.7	0	0	---	0.00	30.015 
03:45	58.6	58.6	58.6	90	55.7	0	0	---	0.00	30.014 
03:50	58.4	58.4	58.4	90	55.5	0	0	---	0.00	30.014 
03:55	58.4	58.4	58.4	91	55.8	0	0	---	0.00	30.014 
04:00	58.3	58.3	58.3	91	55.7	0	0	---	0.00	30.020 
04:05	58.3	58.3	58.3	91	55.7	0	0	---	0.00	30.020 
04:10	58.1	58.1	58.1	91	55.5	0	0	---	0.00	30.020 
04:15	58.1	58.1	58.1	91	55.5	0	0	---	0.00	30.019 
04:20	58.1	58.1	58.1	91	55.5	0	0	---	0.00	30.019 
04:25	58.0	58.0	58.0	91	55.4	0	0	---	0.00	30.019 
04:30	57.8	57.8	57.8	91	55.2	0	0	---	0.00	30.019 
04:35	57.8	57.8	57.8	91	55.2	0	0	---	0.00	30.019 
04:40	57.8	57.8	57.8	91	55.2	0	0	---	0.00	30.019 
04:45	57.6	57.6	57.6	91	55.0	0	0	---	0.00	30.015 
04:50	57.5	57.5	57.5	91	54.9	0	0	---	0.00	30.015 
04:55	57.5	57.5	57.5	92	55.2	0	0	---	0.00	30.015 
05:00	57.3	57.3	57.3	92	55.0	0	0	---	0.00	30.013 
05:05	57.3	57.3	57.3	92	55.0	0	0	---	0.00	30.013 
05:10	57.3	57.3	57.3	92	55.0	0	0	---	0.00	30.013 
05:15	57.2	57.2	57.2	92	54.9	0	0	---	0.00	30.011 
05:20	57.0	57.0	57.0	92	54.7	0	0	---	0.00	30.011 
05:25	57.0	57.0	57.0	92	54.7	0	0	---	0.00	30.011 
05:30	57.0	57.0	57.0	92	54.7	0	0	---	0.00	30.010 
05:35	56.9	56.9	56.9	92	54.6	0	0	---	0.00	30.010 
05:40	56.9	56.9	56.9	92	54.6	0	0	---	0.00	30.010 
05:45	56.7	56.7	56.7	92	54.4	0	0	---	0.00	30.014 
05:50	56.7	56.7	56.7	92	54.4	0	0	---	0.00	30.014 
05:55	56.7	56.7	56.7	92	54.4	0	0	---	0.00	30.014 
06:00	56.7	56.7	56.7	93	54.7	0	0	---	0.00	30.014 
06:05	56.6	56.6	56.6	93	54.6	0	0	---	0.00	30.014 
06:10	56.6	56.6	56.6	93	54.6	0	0	---	0.00	30.014 
06:15	56.6	56.6	56.6	93	54.6	0	0	---	0.00	30.019 
06:20	56.5	56.5	56.5	93	54.5	0	0	---	0.00	30.019 
06:25	56.5	56.5	56.5	93	54.5	0	0	---	0.00	30.019 
06:30	56.3	56.3	56.3	93	54.3	0	0	---	0.00	30.019 
06:35	56.3	56.3	56.3	93	54.3	0	0	---	0.00	30.019 
06:40	56.3	56.3	56.3	93	54.3	0	0	---	0.00	30.019 
06:45	56.3	56.3	56.3	93	54.3	0	0	---	0.00	30.021 
06:50	56.3	56.3	56.3	93	54.3	0	0	---	0.00	30.021 
06:55	56.2	56.2	56.2	93	54.2	0	0	---	0.00	30.021 
07:00	56.2	56.2	56.2	93	54.2	0	0	---	0.00	30.019 
07:05	56.2	56.2	56.2	93	54.2	0	0	---	0.00	30.019 
07:10	56.0	56.0	56.0	93	54.0	0	0	---	0.00	30.019 
07:15	56.2	56.2	56.2	94	54.5	0	0	---	0.00	30.022 
07:20	56.2	56.2	56.2	94	54.5	0	0	---	0.00	30.022 
07:25	56.2	56.2	56.2	94	54.5	0	0	---	0.00	30.022 
07:30	56.3	56.3	56.3	94	54.6	0	0	---	0.00	30.025 
07:35	56.5	56.5	56.5	94	54.8	0	0	---	0.00	30.025 
07:40	56.5	56.5	56.5	94	54.8	0	0	---	0.00	30.025 
07:45	56.7	56.7	56.7	94	55.0	0	0	---	0.00	30.027 
07:50	57.0	57.0	57.0	95	55.6	0	0	---	0.00	30.027 
07:55	57.5	57.5	57.5	95	56.1	0	0	---	0.00	30.027 
08:00	58.1	58.1	58.1	95	56.7	0	0	---	0.00	30.023 
08:05	58.7	58.7	58.7	95	57.3	0	0	---	0.00	30.023 
08:10	59.6	59.6	59.6	95	58.2	0	0	---	0.00	30.023 
08:15	60.5	60.5	60.5	95	59.1	0	0	---	0.00	30.016 
08:20	61.5	61.5	61.5	95	60.1	0	0	---	0.00	30.016 
08:25	62.6	62.6	62.6	93	60.5	0	1	292	0.00	30.016 
08:30	63.4	63.4	63.4	88	59.8	1	2	292	0.00	30.009 
08:35	63.7	63.7	63.7	85	59.1	1	3	292	0.00	30.009 
08:40	64.3	64.3	64.3	84	59.4	0	3	292	0.00	30.009 
08:45	65.0	65.0	65.0	82	59.4	0	1	292	0.00	30.007 
08:50	65.8	65.8	65.8	80	59.5	0	2	292	0.00	30.007 
08:55	66.8	66.8	66.8	78	59.7	0	0	---	0.00	30.007 
09:00	67.6	67.6	67.6	75	59.4	0	1	292	0.00	30.009 
09:05	68.1	68.1	68.1	74	59.5	0	1	292	0.00	30.009 
09:10	68.4	68.4	68.4	73	59.4	0	1	292	0.00	30.009 
09:15	68.8	68.8	68.8	72	59.4	0	1	292	0.00	30.005 
09:20	69.4	69.4	69.4	72	60.0	0	1	292	0.00	30.005 
09:25	69.9	69.9	69.9	70	59.7	0	1	292	0.00	30.005 
09:30	70.4	70.4	70.4	68	59.3	0	2	292	0.00	30.008 
09:35	71.1	71.1	71.1	66	59.2	0	2	292	0.00	30.008 
09:40	72.1	72.1	72.1	64	59.2	0	1	292	0.00	30.008 
09:45	72.8	72.8	72.8	63	59.5	0	1	292	0.00	30.002 
09:50	73.5	73.5	73.5	61	59.2	0	2	292	0.00	30.002 
09:55	74.4	74.4	74.4	60	59.6	0	2	292	0.00	30.002 
10:00	74.7	74.7	74.7	59	59.4	1	4	135	0.00	29.998 
10:05	75.1	75.1	77.5	58	59.3	1	5	90	0.00	29.998 
10:10	75.4	75.4	77.7	58	59.6	1	3	90	0.00	29.998 
10:15	75.8	75.8	77.9	57	59.5	1	4	90	0.00	29.994 
10:20	76.3	76.3	78.3	55	58.9	1	4	112	0.00	29.994 
10:25	76.8	76.8	78.6	54	58.9	1	4	90	0.00	29.994 
10:30	77.4	77.4	78.9	53	58.9	1	3	112	0.00	29.999 
10:35	77.7	77.7	79.2	53	59.2	0	4	112	0.00	29.999 
10:40	78.1	78.1	79.4	52	59.0	1	3	90	0.00	29.999 
10:45	78.6	78.6	79.7	51	58.9	1	3	90	0.00	29.999 
10:50	79.0	79.0	80.0	51	59.3	1	3	90	0.00	29.999 
10:55	79.6	79.6	80.4	49	58.7	1	3	90	0.00	29.999 
11:00	79.9	79.9	80.6	49	59.0	0	3	270	0.00	29.998 
11:05	80.3	80.3	81.0	49	59.4	0	1	270	0.00	29.998 
11:10	80.9	80.9	81.2	46	58.2	1	3	270	0.00	29.998 
11:15	81.1	81.1	81.4	46	58.3	1	5	45	0.00	30.000 
11:20	81.2	81.2	81.5	46	58.4	1	3	292	0.00	30.000 
11:25	81.1	81.1	81.4	46	58.3	1	4	338	0.00	30.000 
11:30	81.1	81.1	81.4	46	58.3	1	3	315	0.00	30.003 
11:35	81.4	81.4	81.6	46	58.6	0	1	338	0.00	30.003 
11:40	82.2	82.2	82.1	44	58.1	1	3	0	0.00	30.003 
11:45	82.0	82.0	81.9	44	57.9	2	4	270	0.00	29.996 
11:50	81.8	81.8	81.8	44	57.7	1	3	270	0.00	29.996 
11:55	82.4	82.4	82.3	44	58.3	2	3	270	0.00	29.996 
12:00	82.4	82.4	82.2	43	57.6	1	3	292	0.00	29.995 
12:05	82.6	82.6	82.4	43	57.8	0	2	315	0.00	29.995 
12:10	83.0	83.0	82.8	43	58.2	1	4	315	0.00	29.995 
12:15	83.4	83.4	82.9	41	57.2	1	4	270	0.00	29.989 
12:20	83.6	83.6	82.9	40	56.7	1	4	315	0.00	29.989 
12:25	83.8	83.8	83.1	40	56.9	1	3	315	0.00	29.989 
12:30	84.1	84.1	83.2	39	56.4	1	4	112	0.00	29.985 
12:35	84.3	84.3	83.4	39	56.6	1	5	112	0.00	29.985 
12:40	84.1	84.1	83.4	40	57.1	1	4	112	0.00	29.985 
12:45	84.3	84.3	83.4	39	56.6	1	4	45	0.00	29.982 
12:50	84.9	84.9	84.2	40	57.8	1	3	68	0.00	29.982 
12:55	85.1	85.1	84.6	41	58.7	1	3	0	0.00	29.982 
13:00	85.5	85.5	84.3	37	56.2	1	3	22	0.00	29.971 
13:05	84.9	84.9	83.9	38	56.4	1	4	292	0.00	29.971 
13:10	84.3	84.3	83.0	36	54.4	1	4	270	0.00	29.971 
13:15	84.0	84.0	83.4	41	57.7	1	3	292	0.00	29.971 
13:20	83.8	83.8	83.1	40	56.9	1	3	315	0.00	29.971 
13:25	83.8	83.8	83.1	40	56.9	1	3	248	0.00	29.971 
13:30	83.8	83.8	83.1	40	56.9	1	4	315	0.00	29.972 
13:35	83.6	83.6	83.0	41	57.4	1	4	270	0.00	29.972 
13:40	83.6	83.6	83.0	41	57.4	1	5	270	0.00	29.972 
13:45	83.8	83.8	83.2	41	57.6	1	3	270	0.00	29.973 
13:50	83.6	83.6	83.0	41	57.4	2	4	270	0.00	29.973 
13:55	83.2	83.2	83.0	43	58.3	2	4	270	0.00	29.973 
14:00	83.2	83.2	82.8	42	57.7	1	5	315	0.00	29.970 
14:05	83.8	83.8	83.6	43	58.9	1	5	248	0.00	29.970 
14:10	84.1	84.1	83.7	42	58.5	2	5	270	0.00	29.970 
14:15	83.8	83.8	83.4	42	58.2	2	4	270	0.00	29.968 
14:20	84.1	84.1	83.9	43	59.2	1	3	338	0.00	29.968 
14:25	84.7	84.7	83.8	39	57.0	1	4	292	0.00	29.968 
14:30	84.7	84.7	83.8	39	57.0	2	6	270	0.00	29.961 
14:35	84.1	84.1	83.1	38	55.7	2	5	270	0.00	29.961 
14:40	84.0	84.0	83.0	38	55.6	1	4	248	0.00	29.961 
14:45	84.1	84.1	83.1	38	55.7	1	3	270	0.00	29.954 
14:50	84.0	84.0	83.0	38	55.6	2	6	270	0.00	29.954 
14:55	84.1	84.1	82.8	36	54.2	1	4	225	0.00	29.954 
15:00	84.5	84.5	83.5	38	56.1	1	6	270	0.00	29.943 
15:05	84.3	84.3	83.3	38	55.9	2	4	270	0.00	29.943 
15:10	84.0	84.0	83.1	39	56.3	2	4	270	0.00	29.943 
15:15	83.6	83.6	82.8	39	56.0	2	5	270	0.00	29.943 
15:20	83.4	83.4	82.3	37	54.4	2	5	270	0.00	29.943 
15:25	83.4	83.4	82.6	39	55.8	1	3	90	0.00	29.943 
15:30	83.4	83.4	82.6	39	55.8	2	6	270	0.00	29.940 
15:35	83.0	83.0	82.3	40	56.2	2	5	270	0.00	29.940 
15:40	83.0	83.0	82.5	41	56.8	2	4	270	0.00	29.940 
15:45	82.8	82.8	82.3	41	56.7	1	4	248	0.00	29.934 
15:50	82.6	82.6	82.2	42	57.2	1	4	248	0.00	29.934 
15:55	82.4	82.4	82.2	43	57.6	1	3	22	0.00	29.934 
16:00	82.0	82.0	81.8	43	57.3	1	5	270	0.00	29.924 
16:05	81.8	81.8	81.8	44	57.7	2	10	248	0.00	29.924 
16:10	81.6	81.6	81.6	44	57.5	1	5	248	0.00	29.924 
16:15	81.4	81.4	81.5	45	58.0	1	6	248	0.00	29.924 
16:20	81.4	81.4	81.5	45	58.0	2	6	270	0.00	29.924 
16:25	81.2	81.2	81.5	46	58.4	1	4	68	0.00	29.924 
16:30	81.2	81.2	81.6	47	59.0	2	5	248	0.00	29.920 
16:35	81.1	81.1	81.4	46	58.3	2	6	270	0.00	29.920 
16:40	81.2	81.2	81.5	46	58.4	1	5	248	0.00	29.920 
16:45	81.4	81.4	81.6	46	58.6	1	3	270	0.00	29.906 
16:50	81.4	81.4	81.5	45	58.0	2	7	270	0.00	29.906 
16:55	81.2	81.2	81.3	45	57.8	1	6	68	0.00	29.906 
17:00	81.1	81.1	81.4	46	58.3	2	5	292	0.00	29.894 
17:05	81.1	81.1	81.4	46	58.3	2	5	315	0.00	29.894 
17:10	80.9	80.9	81.4	48	59.3	1	5	270	0.00	29.894 
17:15	80.9	80.9	81.4	48	59.3	2	6	270	0.00	29.876 
17:20	80.9	80.9	81.4	48	59.3	1	3	248	0.00	29.876 
17:25	80.7	80.7	81.3	49	59.7	2	5	270	0.00	29.876 
17:30	80.5	80.5	81.3	50	60.1	1	5	68	0.00	29.844 
17:35	80.3	80.3	81.2	51	60.5	1	4	90	0.00	29.844 
17:40	80.1	80.1	80.9	50	59.8	2	9	90	0.00	29.844 
17:45	80.1	80.1	80.9	50	59.8	1	7	135	0.00	29.845 
17:50	80.1	80.1	80.8	49	59.2	3	7	248	0.00	29.845 
17:55	80.1	80.1	80.8	49	59.2	1	4	248	0.00	29.845 
18:00	80.3	80.3	81.0	49	59.4	1	3	45	0.00	29.848 
18:05	80.5	80.5	81.0	48	59.0	2	7	135	0.00	29.848 
18:10	80.7	80.7	81.1	47	58.6	2	5	270	0.00	29.848 
18:15	80.5	80.5	81.2	49	59.6	1	4	270	0.00	29.850 
18:20	80.3	80.3	80.9	48	58.8	1	3	68	0.00	29.850 
18:25	80.1	80.1	80.8	49	59.2	1	4	270	0.00	29.850 
18:30	79.9	79.9	80.6	49	59.0	1	7	90	0.00	29.848 
18:35	79.9	79.9	80.7	50	59.6	1	4	270	0.00	29.848 
18:40	79.9	79.9	80.6	49	59.0	1	4	270	0.00	29.848 
18:45	79.6	79.6	80.3	48	58.2	2	6	248	0.00	29.848 
18:50	79.2	79.2	80.0	48	57.8	2	6	248	0.00	29.848 
18:55	79.0	79.0	79.9	49	58.2	1	5	248	0.00	29.848 
19:00	78.8	78.8	79.8	50	58.6	1	4	270	0.00	29.843 
19:05	78.6	78.6	79.7	50	58.4	1	7	248	0.00	29.843 
19:10	78.5	78.5	79.6	51	58.8	1	3	248	0.00	29.843 
19:15	78.1	78.1	79.4	51	58.5	0	2	248	0.00	29.848 
19:20	78.1	78.1	79.4	52	59.0	1	4	315	0.00	29.848 
19:25	77.9	77.9	79.3	52	58.8	0	3	248	0.00	29.848 
19:30	77.7	77.7	79.2	53	59.2	0	3	248	0.00	29.845 
19:35	77.7	77.7	79.2	53	59.2	1	5	248	0.00	29.845 
19:40	77.6	77.6	79.1	54	59.6	0	2	248	0.00	29.845 
19:45	77.4	77.4	79.0	54	59.4	0	1	248	0.00	29.836 
19:50	77.4	77.4	79.0	55	59.9	0	1	248	0.00	29.836 
19:55	77.2	77.2	78.9	55	59.8	0	2	248	0.00	29.836 
20:00	77.0	77.0	78.7	55	59.6	0	3	248	0.00	29.839 
20:05	77.0	77.0	78.7	56	60.1	0	2	248	0.00	29.839 
20:10	76.8	76.8	78.6	57	60.4	0	1	248	0.00	29.839 
20:15	76.7	76.7	78.5	58	60.8	0	1	248	0.00	29.831 
20:20	76.5	76.5	78.4	58	60.6	0	1	248	0.00	29.831 
20:25	76.3	76.3	78.2	58	60.4	0	1	248	0.00	29.831 
20:30	76.1	76.1	78.1	59	60.7	0	1	248	0.00	29.825 
20:35	76.0	76.0	78.0	60	61.1	0	1	248	0.00	29.825 
20:40	75.8	75.8	77.8	61	61.4	1	4	248	0.00	29.825 
20:45	75.6	75.6	77.7	61	61.2	1	4	112	0.00	29.807 
20:50	75.6	75.6	77.7	62	61.6	1	4	68	0.00	29.807 
20:55	75.4	75.4	77.5	62	61.5	0	3	68	0.00	29.807 
21:00	75.3	75.3	77.5	62	61.4	0	3	68	0.00	29.810 
21:05	75.1	75.1	77.3	63	61.6	0	1	68	0.00	29.810 
21:10	74.9	74.9	74.9	63	61.4	0	1	68	0.00	29.810 
21:15	74.7	74.7	74.7	63	61.2	0	2	68	0.00	29.819 
21:20	74.6	74.6	74.6	63	61.2	0	2	68	0.00	29.819 
21:25	74.6	74.6	74.6	64	61.6	0	1	68	0.00	29.819 
21:30	74.6	74.6	74.6	68	63.3	0	1	68	0.02	29.821 
21:35	73.7	73.7	73.7	73	64.5	0	1	68	0.00	29.821 
21:40	73.0	73.0	73.0	76	65.0	0	1	68	0.00	29.821 
21:45	72.1	72.1	72.1	77	64.5	0	1	68	0.00	29.818 
21:50	71.5	71.5	71.5	78	64.3	0	2	68	0.00	29.818 
21:55	71.1	71.1	71.1	78	63.9	0	1	68	0.00	29.818 
22:00	70.8	70.8	70.8	78	63.6	0	0	---	0.00	29.828 
22:05	70.6	70.6	70.6	78	63.4	0	1	68	0.00	29.828 
22:10	70.8	70.8	70.8	77	63.2	0	1	68	0.00	29.828 
22:15	70.9	70.9	70.9	76	62.9	0	2	68	0.00	29.835 
22:20	71.3	71.3	71.3	75	63.0	0	2	68	0.00	29.835 
22:25	71.6	71.6	71.6	73	62.5	0	1	68	0.00	29.835 
22:30	72.0	72.0	72.0	73	62.9	0	3	68	0.00	29.837 
22:35	72.3	72.3	72.3	72	62.8	0	2	68	0.00	29.837 
22:40	72.5	72.5	72.5	71	62.5	0	2	315	0.00	29.837 
22:45	72.5	72.5	72.5	70	62.1	0	2	292	0.00	29.835 
22:50	72.5	72.5	72.5	70	62.1	0	3	292	0.00	29.835 
22:55	72.5	72.5	72.5	70	62.1	0	3	270	0.00	29.835 
23:00	72.3	72.3	72.3	70	62.0	0	1	270	0.00	29.829 
23:05	72.1	72.1	72.1	71	62.2	0	1	270	0.00	29.829 
23:10	72.0	72.0	72.0	71	62.1	0	0	---	0.00	29.829 
23:15	71.6	71.6	71.6	72	62.1	0	1	270	0.00	29.817 
23:20	71.5	71.5	71.5	72	62.0	0	2	270	0.00	29.817 
23:25	71.3	71.3	71.3	72	61.8	0	1	270	0.00	29.817 
23:30	71.1	71.1	71.1	72	61.6	0	1	270	0.00	29.811 
23:35	71.1	71.1	71.1	73	62.0	0	2	270	0.00	29.811 
23:40	71.1	71.1	71.1	73	62.0	0	2	270	0.00	29.811 
23:45	71.1	71.1	71.1	72	61.6	0	1	270	0.00	29.803 
23:50	71.1	71.1	71.1	72	61.6	0	3	270	0.00	29.803 
23:55	71.1	71.1	71.1	72	61.6	1	3	90	0.00	29.803 

CoCoRaHS
IN-AL-39
A2 Web Hosting
Creative Commons License
GoDaddy
search engine by freefind advanced

loaded 2018-11-20 08:16:06 • last modified 2010-11-18 10:43:29
Privacy PolicyDisclaimer
• wx.awcolley.com is powered by PmWiki v.2002016 •
• all content (unless otherwise noted) © 2018 A W Colley